Airville, PA

4:05 AM EDT on May 28, 2015 (GMT -0400)
Scott's Yard | | Change Station
CLOSE
Current Station
Personal Weather Station
Location: Delta, PA
Elevation: 443 ft
Nearby Weather Stations

Elev 443 ft 39.77 °N, 76.30 °W | Updated 7 minutes ago

Partly Cloudy
Partly Cloudy
69.2 °F
Feels Like 69.2 °F
N
3.0
Wind Variable Wind from NNE
Gusts 5.0 mph

Today
High -- | Low -- °F
--% Chance of Precip.
Yesterday
High -- | Low -- °F
Precip. -- in
5:41 AM 8:24 PM
Waxing Gibbous, 74% visible
Pressure 30.12 in
Visibility 4.0 miles
Clouds Overcast 500 ft
Dew Point 68 °F
Humidity 97%
Rainfall 0.00 in
Snow Depth Not available.
UV 0 out of 12
Pollen 4.40 out of 12
Air Quality Not available.
Flu Activity Sporadic
METAR KLNS 280753Z 22004KT 4SM BR OVC005 21/20 A3012 RMK AO2 SLP198 T02110200

More Conditions Fewer Conditions

Pressure 30.12 in
Visibility 4.0 miles
Clouds Overcast 500 ft
Dew Point 68 °F
Humidity 97%
Rainfall 0.00 in
Snow Depth Not available.
UV 0 out of 12
Pollen 4.40 out of 12
Air Quality Not available.
Flu Activity Sporadic
METAR KLNS 280753Z 22004KT 4SM BR OVC005 21/20 A3012 RMK AO2 SLP198 T02110200

More Conditions Fewer Conditions

10-Day Weather Forecast

Almanac

Astronomy

May. 28, 2015 Rise Set
Actual Time
Civil Twilight
Nautical Twilight
Astronomical Twilight
Moon
Length of Visible Light
Length of Day
Tomorrow will be .
, % of the Moon is Illuminated

Today's Extremes

State Highs State Lows

Community

WunderPhotos

Upload Photos

1,824,935 photos uploaded!

WunderBlogs® & News

Nearby

Air Quality

  Air Quality AQ Index Pollutant
Not available.

Snow Depth

Station Depth Elevation

Earthquake Activity

City Distance Mag. Time & Date
Minimum magnitude displayed is 2.5.

Coastal Water Temperatures

Place Temperature

Stations

Nearby Weather Stations

Station Location Temp. Windchill Dew Point Humidity Wind Precip. Elev Updated Type